sensor_id;sensor_type;location;lat;lon;timestamp;P1;durP1;ratioP1;P2;durP2;ratioP2
55186;SDS011;55457;52.002;5.464;2023-12-22T00:00:17;6.72;;;1.55;;
55186;SDS011;55457;52.002;5.464;2023-12-22T00:02:42;4.43;;;0.90;;
55186;SDS011;55457;52.002;5.464;2023-12-22T00:05:08;3.03;;;1.00;;
55186;SDS011;55457;52.002;5.464;2023-12-22T00:07:33;5.18;;;1.58;;
55186;SDS011;55457;52.002;5.464;2023-12-22T00:09:58;4.45;;;1.15;;
55186;SDS011;55457;52.002;5.464;2023-12-22T00:12:24;6.28;;;1.60;;
55186;SDS011;55457;52.002;5.464;2023-12-22T00:14:49;4.28;;;1.15;;
55186;SDS011;55457;52.002;5.464;2023-12-22T00:17:14;6.85;;;1.25;;
55186;SDS011;55457;52.002;5.464;2023-12-22T00:19:39;5.28;;;1.02;;
55186;SDS011;55457;52.002;5.464;2023-12-22T00:22:05;1.85;;;0.95;;
55186;SDS011;55457;52.002;5.464;2023-12-22T00:24:31;3.85;;;1.23;;
55186;SDS011;55457;52.002;5.464;2023-12-22T00:26:56;4.80;;;1.27;;
55186;SDS011;55457;52.002;5.464;2023-12-22T00:29:21;2.58;;;1.48;;
55186;SDS011;55457;52.002;5.464;2023-12-22T00:31:47;4.63;;;1.33;;
55186;SDS011;55457;52.002;5.464;2023-12-22T00:34:12;4.68;;;1.00;;
55186;SDS011;55457;52.002;5.464;2023-12-22T00:36:37;4.18;;;1.45;;
55186;SDS011;55457;52.002;5.464;2023-12-22T00:39:03;3.45;;;1.10;;
55186;SDS011;55457;52.002;5.464;2023-12-22T00:41:29;2.45;;;0.98;;
55186;SDS011;55457;52.002;5.464;2023-12-22T00:43:54;5.38;;;1.58;;
55186;SDS011;55457;52.002;5.464;2023-12-22T00:46:19;5.35;;;1.05;;
55186;SDS011;55457;52.002;5.464;2023-12-22T00:48:45;4.60;;;1.15;;
55186;SDS011;55457;52.002;5.464;2023-12-22T00:51:10;2.83;;;0.70;;
55186;SDS011;55457;52.002;5.464;2023-12-22T00:53:36;7.35;;;1.52;;
55186;SDS011;55457;52.002;5.464;2023-12-22T00:56:01;4.55;;;1.10;;
55186;SDS011;55457;52.002;5.464;2023-12-22T00:58:28;4.40;;;1.10;;
55186;SDS011;55457;52.002;5.464;2023-12-22T01:00:54;2.92;;;1.00;;
55186;SDS011;55457;52.002;5.464;2023-12-22T01:03:19;5.95;;;0.80;;
55186;SDS011;55457;52.002;5.464;2023-12-22T01:05:45;5.93;;;1.27;;
55186;SDS011;55457;52.002;5.464;2023-12-22T01:08:10;4.78;;;1.00;;
55186;SDS011;55457;52.002;5.464;2023-12-22T01:10:35;6.38;;;1.25;;
55186;SDS011;55457;52.002;5.464;2023-12-22T01:13:01;3.25;;;1.00;;
55186;SDS011;55457;52.002;5.464;2023-12-22T01:15:26;4.25;;;1.15;;
55186;SDS011;55457;52.002;5.464;2023-12-22T01:17:51;3.25;;;0.85;;
55186;SDS011;55457;52.002;5.464;2023-12-22T01:20:17;5.63;;;0.95;;
55186;SDS011;55457;52.002;5.464;2023-12-22T01:22:42;3.05;;;0.80;;
55186;SDS011;55457;52.002;5.464;2023-12-22T01:25:08;3.53;;;0.65;;
55186;SDS011;55457;52.002;5.464;2023-12-22T01:27:33;2.78;;;0.90;;
55186;SDS011;55457;52.002;5.464;2023-12-22T01:29:58;4.25;;;1.27;;
55186;SDS011;55457;52.002;5.464;2023-12-22T01:32:24;1.63;;;0.60;;
55186;SDS011;55457;52.002;5.464;2023-12-22T01:34:49;3.42;;;0.82;;
55186;SDS011;55457;52.002;5.464;2023-12-22T01:37:14;3.80;;;0.90;;
55186;SDS011;55457;52.002;5.464;2023-12-22T01:39:40;7.15;;;1.15;;
55186;SDS011;55457;52.002;5.464;2023-12-22T01:42:05;6.05;;;1.40;;
55186;SDS011;55457;52.002;5.464;2023-12-22T01:44:30;2.17;;;1.17;;
55186;SDS011;55457;52.002;5.464;2023-12-22T01:46:56;6.93;;;1.52;;
55186;SDS011;55457;52.002;5.464;2023-12-22T01:49:21;4.60;;;0.98;;
55186;SDS011;55457;52.002;5.464;2023-12-22T01:51:47;3.35;;;1.20;;
55186;SDS011;55457;52.002;5.464;2023-12-22T01:54:14;5.32;;;0.88;;
55186;SDS011;55457;52.002;5.464;2023-12-22T01:56:43;4.43;;;0.90;;
55186;SDS011;55457;52.002;5.464;2023-12-22T01:59:10;3.65;;;0.93;;
55186;SDS011;55457;52.002;5.464;2023-12-22T02:01:36;2.67;;;1.00;;
55186;SDS011;55457;52.002;5.464;2023-12-22T02:04:01;2.70;;;0.95;;
55186;SDS011;55457;52.002;5.464;2023-12-22T02:06:27;4.25;;;1.17;;
55186;SDS011;55457;52.002;5.464;2023-12-22T02:08:55;4.55;;;1.02;;
55186;SDS011;55457;52.002;5.464;2023-12-22T02:11:23;5.80;;;1.20;;
55186;SDS011;55457;52.002;5.464;2023-12-22T02:13:48;5.85;;;1.20;;
55186;SDS011;55457;52.002;5.464;2023-12-22T02:16:18;2.55;;;0.85;;
55186;SDS011;55457;52.002;5.464;2023-12-22T02:18:58;5.90;;;1.10;;
55186;SDS011;55457;52.002;5.464;2023-12-22T02:21:29;4.53;;;1.17;;
55186;SDS011;55457;52.002;5.464;2023-12-22T02:23:54;3.95;;;1.15;;
55186;SDS011;55457;52.002;5.464;2023-12-22T02:26:22;3.20;;;0.93;;
55186;SDS011;55457;52.002;5.464;2023-12-22T02:28:52;3.05;;;1.40;;
55186;SDS011;55457;52.002;5.464;2023-12-22T02:34:10;3.85;;;1.00;;
55186;SDS011;55457;52.002;5.464;2023-12-22T02:36:38;3.17;;;0.98;;
55186;SDS011;55457;52.002;5.464;2023-12-22T02:39:06;4.97;;;1.08;;
55186;SDS011;55457;52.002;5.464;2023-12-22T02:41:34;2.65;;;0.93;;
55186;SDS011;55457;52.002;5.464;2023-12-22T02:44:00;3.75;;;1.13;;
55186;SDS011;55457;52.002;5.464;2023-12-22T02:46:25;2.95;;;0.82;;
55186;SDS011;55457;52.002;5.464;2023-12-22T02:48:51;6.00;;;1.23;;
55186;SDS011;55457;52.002;5.464;2023-12-22T02:51:16;3.35;;;0.85;;
55186;SDS011;55457;52.002;5.464;2023-12-22T02:53:41;3.97;;;1.00;;
55186;SDS011;55457;52.002;5.464;2023-12-22T02:56:07;5.35;;;1.33;;
55186;SDS011;55457;52.002;5.464;2023-12-22T02:58:32;4.40;;;0.90;;
55186;SDS011;55457;52.002;5.464;2023-12-22T03:00:57;5.38;;;1.10;;
55186;SDS011;55457;52.002;5.464;2023-12-22T03:03:23;6.13;;;1.50;;
55186;SDS011;55457;52.002;5.464;2023-12-22T03:05:48;5.38;;;1.30;;
55186;SDS011;55457;52.002;5.464;2023-12-22T03:08:13;3.58;;;1.23;;
55186;SDS011;55457;52.002;5.464;2023-12-22T03:10:39;4.47;;;0.90;;
55186;SDS011;55457;52.002;5.464;2023-12-22T03:13:04;4.18;;;1.08;;
55186;SDS011;55457;52.002;5.464;2023-12-22T03:15:29;2.28;;;1.08;;
55186;SDS011;55457;52.002;5.464;2023-12-22T03:17:54;4.78;;;1.00;;
55186;SDS011;55457;52.002;5.464;2023-12-22T03:20:20;3.92;;;1.13;;
55186;SDS011;55457;52.002;5.464;2023-12-22T03:22:45;3.72;;;0.90;;
55186;SDS011;55457;52.002;5.464;2023-12-22T03:25:10;5.68;;;0.70;;
55186;SDS011;55457;52.002;5.464;2023-12-22T03:27:36;5.63;;;1.05;;
55186;SDS011;55457;52.002;5.464;2023-12-22T03:30:01;6.05;;;1.23;;
55186;SDS011;55457;52.002;5.464;2023-12-22T03:32:27;2.90;;;0.90;;
55186;SDS011;55457;52.002;5.464;2023-12-22T03:34:52;4.03;;;1.00;;
55186;SDS011;55457;52.002;5.464;2023-12-22T03:37:17;5.63;;;1.75;;
55186;SDS011;55457;52.002;5.464;2023-12-22T03:39:43;3.60;;;0.98;;
55186;SDS011;55457;52.002;5.464;2023-12-22T03:42:08;6.10;;;1.30;;
55186;SDS011;55457;52.002;5.464;2023-12-22T03:44:33;9.63;;;1.17;;
55186;SDS011;55457;52.002;5.464;2023-12-22T03:46:59;2.85;;;0.95;;
55186;SDS011;55457;52.002;5.464;2023-12-22T03:49:24;3.38;;;0.80;;
55186;SDS011;55457;52.002;5.464;2023-12-22T03:51:49;5.47;;;1.08;;
55186;SDS011;55457;52.002;5.464;2023-12-22T03:54:15;2.38;;;0.95;;
55186;SDS011;55457;52.002;5.464;2023-12-22T03:56:42;4.65;;;1.08;;
55186;SDS011;55457;52.002;5.464;2023-12-22T03:59:07;4.38;;;1.20;;
55186;SDS011;55457;52.002;5.464;2023-12-22T04:01:33;8.20;;;1.30;;
55186;SDS011;55457;52.002;5.464;2023-12-22T04:03:58;5.20;;;0.88;;
55186;SDS011;55457;52.002;5.464;2023-12-22T04:06:23;4.57;;;0.85;;
55186;SDS011;55457;52.002;5.464;2023-12-22T04:08:49;2.38;;;1.00;;
55186;SDS011;55457;52.002;5.464;2023-12-22T04:11:14;2.20;;;0.77;;
55186;SDS011;55457;52.002;5.464;2023-12-22T04:13:39;3.00;;;0.95;;
55186;SDS011;55457;52.002;5.464;2023-12-22T04:16:05;4.05;;;1.13;;
55186;SDS011;55457;52.002;5.464;2023-12-22T04:18:30;6.00;;;1.23;;
55186;SDS011;55457;52.002;5.464;2023-12-22T04:20:56;4.50;;;0.77;;
55186;SDS011;55457;52.002;5.464;2023-12-22T04:23:22;3.05;;;1.10;;
55186;SDS011;55457;52.002;5.464;2023-12-22T04:25:47;4.95;;;1.13;;
55186;SDS011;55457;52.002;5.464;2023-12-22T04:28:13;3.80;;;0.80;;
55186;SDS011;55457;52.002;5.464;2023-12-22T04:30:38;3.65;;;1.23;;
55186;SDS011;55457;52.002;5.464;2023-12-22T04:33:03;2.60;;;0.68;;
55186;SDS011;55457;52.002;5.464;2023-12-22T04:35:29;3.58;;;1.05;;
55186;SDS011;55457;52.002;5.464;2023-12-22T04:37:54;3.47;;;1.00;;
55186;SDS011;55457;52.002;5.464;2023-12-22T04:40:19;6.97;;;1.00;;
55186;SDS011;55457;52.002;5.464;2023-12-22T04:42:45;3.88;;;1.02;;
55186;SDS011;55457;52.002;5.464;2023-12-22T04:45:10;3.45;;;1.20;;
55186;SDS011;55457;52.002;5.464;2023-12-22T04:47:35;3.13;;;1.00;;
55186;SDS011;55457;52.002;5.464;2023-12-22T04:50:01;3.97;;;1.45;;
55186;SDS011;55457;52.002;5.464;2023-12-22T04:52:26;4.68;;;1.70;;
55186;SDS011;55457;52.002;5.464;2023-12-22T04:54:51;3.80;;;0.85;;
55186;SDS011;55457;52.002;5.464;2023-12-22T04:57:17;7.47;;;1.02;;
55186;SDS011;55457;52.002;5.464;2023-12-22T04:59:42;3.50;;;1.17;;
55186;SDS011;55457;52.002;5.464;2023-12-22T05:02:07;3.63;;;1.08;;
55186;SDS011;55457;52.002;5.464;2023-12-22T05:04:33;5.63;;;0.95;;
55186;SDS011;55457;52.002;5.464;2023-12-22T05:06:58;3.33;;;0.73;;
55186;SDS011;55457;52.002;5.464;2023-12-22T05:09:24;4.07;;;0.95;;
55186;SDS011;55457;52.002;5.464;2023-12-22T05:11:50;2.70;;;0.77;;
55186;SDS011;55457;52.002;5.464;2023-12-22T05:14:15;5.60;;;1.17;;
55186;SDS011;55457;52.002;5.464;2023-12-22T05:16:41;3.47;;;0.88;;
55186;SDS011;55457;52.002;5.464;2023-12-22T05:19:06;6.45;;;0.90;;
55186;SDS011;55457;52.002;5.464;2023-12-22T05:21:31;5.35;;;0.90;;
55186;SDS011;55457;52.002;5.464;2023-12-22T05:23:57;5.78;;;1.45;;
55186;SDS011;55457;52.002;5.464;2023-12-22T05:26:22;3.95;;;0.90;;
55186;SDS011;55457;52.002;5.464;2023-12-22T05:28:48;3.35;;;1.00;;
55186;SDS011;55457;52.002;5.464;2023-12-22T05:31:17;3.45;;;0.95;;
55186;SDS011;55457;52.002;5.464;2023-12-22T05:33:42;4.00;;;1.05;;
55186;SDS011;55457;52.002;5.464;2023-12-22T05:36:08;2.28;;;0.60;;
55186;SDS011;55457;52.002;5.464;2023-12-22T05:38:37;5.22;;;1.52;;
55186;SDS011;55457;52.002;5.464;2023-12-22T05:41:03;6.00;;;1.42;;
55186;SDS011;55457;52.002;5.464;2023-12-22T05:43:29;3.97;;;0.95;;
55186;SDS011;55457;52.002;5.464;2023-12-22T05:45:54;2.30;;;0.63;;
55186;SDS011;55457;52.002;5.464;2023-12-22T05:48:20;5.63;;;1.25;;
55186;SDS011;55457;52.002;5.464;2023-12-22T05:50:47;4.70;;;1.00;;
55186;SDS011;55457;52.002;5.464;2023-12-22T05:53:12;4.07;;;0.85;;
55186;SDS011;55457;52.002;5.464;2023-12-22T05:55:38;5.10;;;1.10;;
55186;SDS011;55457;52.002;5.464;2023-12-22T05:58:03;3.55;;;0.70;;
55186;SDS011;55457;52.002;5.464;2023-12-22T06:00:28;3.65;;;1.08;;
55186;SDS011;55457;52.002;5.464;2023-12-22T06:02:54;2.60;;;0.68;;
55186;SDS011;55457;52.002;5.464;2023-12-22T06:05:19;4.78;;;1.08;;
55186;SDS011;55457;52.002;5.464;2023-12-22T06:07:44;3.75;;;1.42;;
55186;SDS011;55457;52.002;5.464;2023-12-22T06:10:10;2.75;;;0.95;;
55186;SDS011;55457;52.002;5.464;2023-12-22T06:12:35;2.30;;;0.90;;
55186;SDS011;55457;52.002;5.464;2023-12-22T06:15:01;3.92;;;0.93;;
55186;SDS011;55457;52.002;5.464;2023-12-22T06:17:27;3.08;;;0.90;;
55186;SDS011;55457;52.002;5.464;2023-12-22T06:19:52;2.63;;;0.90;;
55186;SDS011;55457;52.002;5.464;2023-12-22T06:22:17;3.17;;;1.40;;
55186;SDS011;55457;52.002;5.464;2023-12-22T06:24:43;3.65;;;0.90;;
55186;SDS011;55457;52.002;5.464;2023-12-22T06:27:09;4.22;;;0.73;;
55186;SDS011;55457;52.002;5.464;2023-12-22T06:29:35;4.22;;;1.20;;
55186;SDS011;55457;52.002;5.464;2023-12-22T06:32:00;4.68;;;1.05;;
55186;SDS011;55457;52.002;5.464;2023-12-22T06:34:25;3.25;;;0.82;;
55186;SDS011;55457;52.002;5.464;2023-12-22T06:36:51;3.10;;;1.00;;
55186;SDS011;55457;52.002;5.464;2023-12-22T06:39:16;7.80;;;1.45;;
55186;SDS011;55457;52.002;5.464;2023-12-22T06:41:41;7.47;;;1.10;;
55186;SDS011;55457;52.002;5.464;2023-12-22T06:44:07;3.63;;;1.10;;
55186;SDS011;55457;52.002;5.464;2023-12-22T06:46:32;3.08;;;0.90;;
55186;SDS011;55457;52.002;5.464;2023-12-22T06:48:58;5.07;;;1.00;;
55186;SDS011;55457;52.002;5.464;2023-12-22T06:51:25;3.80;;;1.10;;
55186;SDS011;55457;52.002;5.464;2023-12-22T06:53:52;2.45;;;1.02;;
55186;SDS011;55457;52.002;5.464;2023-12-22T06:56:18;4.72;;;1.58;;
55186;SDS011;55457;52.002;5.464;2023-12-22T06:58:52;5.80;;;1.60;;
55186;SDS011;55457;52.002;5.464;2023-12-22T07:01:19;13.30;;;1.67;;
55186;SDS011;55457;52.002;5.464;2023-12-22T07:06:20;9.70;;;2.25;;
55186;SDS011;55457;52.002;5.464;2023-12-22T07:11:48;11.45;;;1.88;;
55186;SDS011;55457;52.002;5.464;2023-12-22T07:14:15;15.73;;;2.08;;
55186;SDS011;55457;52.002;5.464;2023-12-22T07:16:41;13.68;;;2.95;;
55186;SDS011;55457;52.002;5.464;2023-12-22T07:19:09;9.23;;;1.55;;
55186;SDS011;55457;52.002;5.464;2023-12-22T07:21:38;13.20;;;2.30;;
55186;SDS011;55457;52.002;5.464;2023-12-22T07:24:03;13.30;;;2.58;;
55186;SDS011;55457;52.002;5.464;2023-12-22T07:26:29;14.48;;;2.65;;
55186;SDS011;55457;52.002;5.464;2023-12-22T07:28:55;13.23;;;2.13;;
55186;SDS011;55457;52.002;5.464;2023-12-22T07:31:20;15.20;;;2.20;;
55186;SDS011;55457;52.002;5.464;2023-12-22T07:33:46;14.40;;;2.35;;
55186;SDS011;55457;52.002;5.464;2023-12-22T07:36:11;15.77;;;2.53;;
55186;SDS011;55457;52.002;5.464;2023-12-22T07:38:37;11.65;;;3.45;;
55186;SDS011;55457;52.002;5.464;2023-12-22T07:41:04;14.65;;;2.80;;
55186;SDS011;55457;52.002;5.464;2023-12-22T07:43:29;11.68;;;2.25;;
55186;SDS011;55457;52.002;5.464;2023-12-22T07:45:55;12.93;;;2.65;;
55186;SDS011;55457;52.002;5.464;2023-12-22T07:48:20;9.43;;;2.40;;
55186;SDS011;55457;52.002;5.464;2023-12-22T07:50:45;10.13;;;2.50;;
55186;SDS011;55457;52.002;5.464;2023-12-22T07:53:11;11.95;;;2.33;;
55186;SDS011;55457;52.002;5.464;2023-12-22T07:55:36;5.93;;;1.92;;
55186;SDS011;55457;52.002;5.464;2023-12-22T07:58:03;11.13;;;2.42;;
55186;SDS011;55457;52.002;5.464;2023-12-22T08:00:32;9.43;;;2.53;;
55186;SDS011;55457;52.002;5.464;2023-12-22T08:02:58;5.50;;;1.90;;
55186;SDS011;55457;52.002;5.464;2023-12-22T08:05:23;13.63;;;2.47;;
55186;SDS011;55457;52.002;5.464;2023-12-22T08:07:49;8.73;;;1.60;;
55186;SDS011;55457;52.002;5.464;2023-12-22T08:10:14;7.80;;;2.22;;
55186;SDS011;55457;52.002;5.464;2023-12-22T08:12:40;9.45;;;1.83;;
55186;SDS011;55457;52.002;5.464;2023-12-22T08:15:06;7.57;;;1.40;;
55186;SDS011;55457;52.002;5.464;2023-12-22T08:17:32;7.10;;;2.05;;
55186;SDS011;55457;52.002;5.464;2023-12-22T08:19:58;10.65;;;2.33;;
55186;SDS011;55457;52.002;5.464;2023-12-22T08:22:23;10.68;;;1.65;;
55186;SDS011;55457;52.002;5.464;2023-12-22T08:24:49;8.70;;;1.73;;
55186;SDS011;55457;52.002;5.464;2023-12-22T08:27:14;10.30;;;2.97;;
55186;SDS011;55457;52.002;5.464;2023-12-22T08:29:40;8.77;;;2.35;;
55186;SDS011;55457;52.002;5.464;2023-12-22T08:32:05;5.53;;;1.63;;
55186;SDS011;55457;52.002;5.464;2023-12-22T08:34:31;17.02;;;2.58;;
55186;SDS011;55457;52.002;5.464;2023-12-22T08:36:56;9.27;;;2.40;;
55186;SDS011;55457;52.002;5.464;2023-12-22T08:39:21;9.25;;;1.98;;
55186;SDS011;55457;52.002;5.464;2023-12-22T08:41:49;9.70;;;2.58;;
55186;SDS011;55457;52.002;5.464;2023-12-22T08:44:14;6.60;;;2.15;;
55186;SDS011;55457;52.002;5.464;2023-12-22T08:46:40;8.98;;;2.20;;
55186;SDS011;55457;52.002;5.464;2023-12-22T08:49:05;8.52;;;1.80;;
55186;SDS011;55457;52.002;5.464;2023-12-22T08:51:31;13.20;;;2.60;;
55186;SDS011;55457;52.002;5.464;2023-12-22T08:53:56;7.75;;;2.13;;
55186;SDS011;55457;52.002;5.464;2023-12-22T08:56:22;10.68;;;2.03;;
55186;SDS011;55457;52.002;5.464;2023-12-22T08:58:48;8.60;;;2.15;;
55186;SDS011;55457;52.002;5.464;2023-12-22T09:01:16;6.80;;;2.08;;
55186;SDS011;55457;52.002;5.464;2023-12-22T09:03:42;15.35;;;2.45;;
55186;SDS011;55457;52.002;5.464;2023-12-22T09:06:14;8.63;;;1.80;;
55186;SDS011;55457;52.002;5.464;2023-12-22T09:08:40;7.63;;;1.25;;
55186;SDS011;55457;52.002;5.464;2023-12-22T09:11:06;8.68;;;1.70;;
55186;SDS011;55457;52.002;5.464;2023-12-22T09:13:32;9.38;;;2.65;;
55186;SDS011;55457;52.002;5.464;2023-12-22T09:15:58;7.70;;;1.63;;
55186;SDS011;55457;52.002;5.464;2023-12-22T09:18:24;6.90;;;2.30;;
55186;SDS011;55457;52.002;5.464;2023-12-22T09:20:49;6.25;;;1.23;;
55186;SDS011;55457;52.002;5.464;2023-12-22T09:23:14;5.68;;;1.70;;
55186;SDS011;55457;52.002;5.464;2023-12-22T09:25:39;5.78;;;1.48;;
55186;SDS011;55457;52.002;5.464;2023-12-22T09:28:05;13.02;;;3.03;;
55186;SDS011;55457;52.002;5.464;2023-12-22T09:30:31;3.90;;;1.40;;
55186;SDS011;55457;52.002;5.464;2023-12-22T09:32:56;9.35;;;1.95;;
55186;SDS011;55457;52.002;5.464;2023-12-22T09:35:22;9.45;;;2.78;;
55186;SDS011;55457;52.002;5.464;2023-12-22T09:37:49;6.78;;;1.33;;
55186;SDS011;55457;52.002;5.464;2023-12-22T09:40:15;6.80;;;2.13;;
55186;SDS011;55457;52.002;5.464;2023-12-22T09:42:40;6.75;;;1.48;;
55186;SDS011;55457;52.002;5.464;2023-12-22T09:45:07;5.90;;;1.80;;
55186;SDS011;55457;52.002;5.464;2023-12-22T09:47:35;9.00;;;2.28;;
55186;SDS011;55457;52.002;5.464;2023-12-22T09:50:02;8.07;;;2.05;;
55186;SDS011;55457;52.002;5.464;2023-12-22T09:52:30;4.15;;;1.58;;
55186;SDS011;55457;52.002;5.464;2023-12-22T09:54:57;4.50;;;1.63;;
55186;SDS011;55457;52.002;5.464;2023-12-22T09:57:23;7.88;;;1.77;;
55186;SDS011;55457;52.002;5.464;2023-12-22T09:59:51;6.60;;;1.27;;
55186;SDS011;55457;52.002;5.464;2023-12-22T10:02:17;4.78;;;1.10;;
55186;SDS011;55457;52.002;5.464;2023-12-22T10:04:42;6.07;;;1.58;;
55186;SDS011;55457;52.002;5.464;2023-12-22T10:07:08;5.22;;;1.52;;
55186;SDS011;55457;52.002;5.464;2023-12-22T10:09:38;6.72;;;2.22;;
55186;SDS011;55457;52.002;5.464;2023-12-22T10:12:04;4.82;;;1.30;;
55186;SDS011;55457;52.002;5.464;2023-12-22T10:14:31;5.43;;;1.73;;
55186;SDS011;55457;52.002;5.464;2023-12-22T10:16:58;5.70;;;1.15;;
55186;SDS011;55457;52.002;5.464;2023-12-22T10:19:24;5.93;;;2.08;;
55186;SDS011;55457;52.002;5.464;2023-12-22T10:21:49;5.40;;;1.33;;
55186;SDS011;55457;52.002;5.464;2023-12-22T10:27:03;9.57;;;1.70;;
55186;SDS011;55457;52.002;5.464;2023-12-22T10:29:29;3.42;;;1.63;;
55186;SDS011;55457;52.002;5.464;2023-12-22T10:31:54;8.48;;;1.55;;
55186;SDS011;55457;52.002;5.464;2023-12-22T10:34:20;5.88;;;1.02;;
55186;SDS011;55457;52.002;5.464;2023-12-22T10:36:45;3.80;;;1.30;;
55186;SDS011;55457;52.002;5.464;2023-12-22T10:39:11;3.03;;;0.95;;
55186;SDS011;55457;52.002;5.464;2023-12-22T10:41:36;5.07;;;1.52;;
55186;SDS011;55457;52.002;5.464;2023-12-22T10:44:02;4.07;;;1.30;;
55186;SDS011;55457;52.002;5.464;2023-12-22T10:46:28;5.30;;;1.20;;
55186;SDS011;55457;52.002;5.464;2023-12-22T10:48:58;4.55;;;1.33;;
55186;SDS011;55457;52.002;5.464;2023-12-22T10:51:24;2.55;;;0.98;;
55186;SDS011;55457;52.002;5.464;2023-12-22T10:53:49;2.33;;;0.90;;
55186;SDS011;55457;52.002;5.464;2023-12-22T10:56:15;2.55;;;0.60;;
55186;SDS011;55457;52.002;5.464;2023-12-22T10:58:40;7.07;;;1.80;;
55186;SDS011;55457;52.002;5.464;2023-12-22T11:01:07;2.53;;;1.27;;
55186;SDS011;55457;52.002;5.464;2023-12-22T11:03:34;4.05;;;1.50;;
55186;SDS011;55457;52.002;5.464;2023-12-22T11:06:04;4.95;;;1.55;;
55186;SDS011;55457;52.002;5.464;2023-12-22T11:08:34;2.38;;;0.90;;
55186;SDS011;55457;52.002;5.464;2023-12-22T11:11:01;3.53;;;1.30;;
55186;SDS011;55457;52.002;5.464;2023-12-22T11:13:34;6.20;;;1.25;;
55186;SDS011;55457;52.002;5.464;2023-12-22T11:16:00;1.85;;;0.98;;
55186;SDS011;55457;52.002;5.464;2023-12-22T11:18:26;7.90;;;2.08;;
55186;SDS011;55457;52.002;5.464;2023-12-22T11:20:53;4.18;;;1.27;;
55186;SDS011;55457;52.002;5.464;2023-12-22T11:23:19;4.05;;;1.30;;
55186;SDS011;55457;52.002;5.464;2023-12-22T11:25:46;3.30;;;1.10;;
55186;SDS011;55457;52.002;5.464;2023-12-22T11:28:15;3.22;;;1.42;;
55186;SDS011;55457;52.002;5.464;2023-12-22T11:30:43;4.03;;;1.05;;
55186;SDS011;55457;52.002;5.464;2023-12-22T11:33:10;3.03;;;0.90;;
55186;SDS011;55457;52.002;5.464;2023-12-22T11:35:37;3.25;;;1.13;;
55186;SDS011;55457;52.002;5.464;2023-12-22T11:38:03;4.50;;;1.42;;
55186;SDS011;55457;52.002;5.464;2023-12-22T11:40:30;2.40;;;0.90;;
55186;SDS011;55457;52.002;5.464;2023-12-22T11:42:56;4.65;;;1.02;;
55186;SDS011;55457;52.002;5.464;2023-12-22T11:45:22;5.38;;;1.20;;
55186;SDS011;55457;52.002;5.464;2023-12-22T11:47:49;4.18;;;1.02;;
55186;SDS011;55457;52.002;5.464;2023-12-22T11:50:27;4.57;;;1.10;;
55186;SDS011;55457;52.002;5.464;2023-12-22T11:52:56;3.67;;;1.30;;
55186;SDS011;55457;52.002;5.464;2023-12-22T12:01:02;3.78;;;0.93;;
55186;SDS011;55457;52.002;5.464;2023-12-22T12:03:30;4.28;;;0.82;;
55186;SDS011;55457;52.002;5.464;2023-12-22T12:08:49;3.38;;;0.68;;
55186;SDS011;55457;52.002;5.464;2023-12-22T12:11:16;5.53;;;1.15;;
55186;SDS011;55457;52.002;5.464;2023-12-22T12:13:42;2.92;;;0.80;;
55186;SDS011;55457;52.002;5.464;2023-12-22T12:16:10;4.15;;;1.25;;
55186;SDS011;55457;52.002;5.464;2023-12-22T12:18:36;4.25;;;1.48;;
55186;SDS011;55457;52.002;5.464;2023-12-22T12:21:01;4.25;;;1.02;;
55186;SDS011;55457;52.002;5.464;2023-12-22T12:23:29;4.13;;;0.90;;
55186;SDS011;55457;52.002;5.464;2023-12-22T12:25:55;3.60;;;1.10;;
55186;SDS011;55457;52.002;5.464;2023-12-22T12:28:30;5.93;;;2.17;;
55186;SDS011;55457;52.002;5.464;2023-12-22T12:31:00;13.30;;;1.30;;
55186;SDS011;55457;52.002;5.464;2023-12-22T12:33:30;7.47;;;1.00;;
55186;SDS011;55457;52.002;5.464;2023-12-22T12:35:56;5.90;;;1.02;;
55186;SDS011;55457;52.002;5.464;2023-12-22T12:41:07;3.40;;;0.90;;
55186;SDS011;55457;52.002;5.464;2023-12-22T12:43:34;6.38;;;0.90;;
55186;SDS011;55457;52.002;5.464;2023-12-22T12:46:04;3.47;;;1.40;;
55186;SDS011;55457;52.002;5.464;2023-12-22T12:48:30;6.03;;;1.25;;
55186;SDS011;55457;52.002;5.464;2023-12-22T12:51:00;3.58;;;0.82;;
55186;SDS011;55457;52.002;5.464;2023-12-22T12:53:30;3.50;;;0.88;;
55186;SDS011;55457;52.002;5.464;2023-12-22T12:55:57;4.13;;;1.02;;
55186;SDS011;55457;52.002;5.464;2023-12-22T12:58:27;1.75;;;0.82;;
55186;SDS011;55457;52.002;5.464;2023-12-22T13:00:54;4.38;;;0.85;;
55186;SDS011;55457;52.002;5.464;2023-12-22T13:03:28;2.47;;;0.82;;
55186;SDS011;55457;52.002;5.464;2023-12-22T13:06:04;2.17;;;0.70;;
55186;SDS011;55457;52.002;5.464;2023-12-22T13:08:31;4.80;;;0.95;;
55186;SDS011;55457;52.002;5.464;2023-12-22T13:11:00;4.20;;;1.20;;
55186;SDS011;55457;52.002;5.464;2023-12-22T13:13:29;2.35;;;0.70;;
55186;SDS011;55457;52.002;5.464;2023-12-22T13:15:54;7.20;;;1.20;;
55186;SDS011;55457;52.002;5.464;2023-12-22T13:18:20;9.23;;;1.25;;
55186;SDS011;55457;52.002;5.464;2023-12-22T13:20:46;9.57;;;1.02;;
55186;SDS011;55457;52.002;5.464;2023-12-22T13:23:12;13.35;;;1.30;;
55186;SDS011;55457;52.002;5.464;2023-12-22T13:25:42;5.35;;;0.80;;
55186;SDS011;55457;52.002;5.464;2023-12-22T13:28:07;6.72;;;1.20;;
55186;SDS011;55457;52.002;5.464;2023-12-22T13:30:38;3.75;;;0.82;;
55186;SDS011;55457;52.002;5.464;2023-12-22T13:33:07;5.68;;;1.48;;
55186;SDS011;55457;52.002;5.464;2023-12-22T13:35:33;7.45;;;1.17;;
55186;SDS011;55457;52.002;5.464;2023-12-22T13:38:01;8.40;;;1.70;;
55186;SDS011;55457;52.002;5.464;2023-12-22T13:40:27;6.93;;;1.67;;
55186;SDS011;55457;52.002;5.464;2023-12-22T13:42:54;4.47;;;1.10;;
55186;SDS011;55457;52.002;5.464;2023-12-22T13:45:22;7.65;;;1.40;;
55186;SDS011;55457;52.002;5.464;2023-12-22T13:47:47;5.75;;;1.23;;
55186;SDS011;55457;52.002;5.464;2023-12-22T13:50:14;7.32;;;1.23;;
55186;SDS011;55457;52.002;5.464;2023-12-22T13:52:40;9.82;;;1.38;;
55186;SDS011;55457;52.002;5.464;2023-12-22T13:57:40;6.40;;;1.00;;
55186;SDS011;55457;52.002;5.464;2023-12-22T14:02:32;3.35;;;1.15;;
55186;SDS011;55457;52.002;5.464;2023-12-22T14:04:57;4.30;;;0.68;;
55186;SDS011;55457;52.002;5.464;2023-12-22T14:07:23;5.00;;;0.63;;
55186;SDS011;55457;52.002;5.464;2023-12-22T14:09:48;8.32;;;0.90;;
55186;SDS011;55457;52.002;5.464;2023-12-22T14:12:13;5.47;;;0.93;;
55186;SDS011;55457;52.002;5.464;2023-12-22T14:14:39;6.53;;;1.05;;
55186;SDS011;55457;52.002;5.464;2023-12-22T14:17:04;10.50;;;1.38;;
55186;SDS011;55457;52.002;5.464;2023-12-22T14:19:30;3.55;;;1.10;;
55186;SDS011;55457;52.002;5.464;2023-12-22T14:21:55;5.07;;;0.88;;
55186;SDS011;55457;52.002;5.464;2023-12-22T14:24:20;2.15;;;0.65;;
55186;SDS011;55457;52.002;5.464;2023-12-22T14:26:52;5.85;;;1.05;;
55186;SDS011;55457;52.002;5.464;2023-12-22T14:29:18;2.45;;;1.15;;
55186;SDS011;55457;52.002;5.464;2023-12-22T14:31:44;2.40;;;1.02;;
55186;SDS011;55457;52.002;5.464;2023-12-22T14:34:12;4.43;;;1.02;;
55186;SDS011;55457;52.002;5.464;2023-12-22T14:36:37;2.28;;;0.90;;
55186;SDS011;55457;52.002;5.464;2023-12-22T14:39:03;7.68;;;1.60;;
55186;SDS011;55457;52.002;5.464;2023-12-22T14:41:28;8.00;;;1.85;;
55186;SDS011;55457;52.002;5.464;2023-12-22T14:43:53;18.38;;;1.58;;
55186;SDS011;55457;52.002;5.464;2023-12-22T14:46:18;3.10;;;0.80;;
55186;SDS011;55457;52.002;5.464;2023-12-22T14:48:44;3.80;;;0.95;;
55186;SDS011;55457;52.002;5.464;2023-12-22T14:51:09;2.88;;;0.68;;
55186;SDS011;55457;52.002;5.464;2023-12-22T14:53:35;4.18;;;0.60;;
55186;SDS011;55457;52.002;5.464;2023-12-22T14:56:01;5.00;;;0.98;;
55186;SDS011;55457;52.002;5.464;2023-12-22T14:58:26;5.07;;;0.80;;
55186;SDS011;55457;52.002;5.464;2023-12-22T15:00:51;7.45;;;1.02;;
55186;SDS011;55457;52.002;5.464;2023-12-22T15:03:16;6.40;;;1.20;;
55186;SDS011;55457;52.002;5.464;2023-12-22T15:05:42;4.25;;;1.13;;